sensor_id;sensor_type;location;lat;lon;timestamp;P1;durP1;ratioP1;P2;durP2;ratioP2
40595;SDS011;26304;48.794;9.820;2022-08-21T00:01:55;2.53;;;2.15;;
40595;SDS011;26304;48.794;9.820;2022-08-21T00:07:37;4.78;;;2.17;;
40595;SDS011;26304;48.794;9.820;2022-08-21T00:13:21;2.20;;;2.00;;
40595;SDS011;26304;48.794;9.820;2022-08-21T00:19:04;2.13;;;1.98;;
40595;SDS011;26304;48.794;9.820;2022-08-21T00:24:47;3.53;;;2.45;;
40595;SDS011;26304;48.794;9.820;2022-08-21T00:30:31;4.25;;;2.53;;
40595;SDS011;26304;48.794;9.820;2022-08-21T00:36:14;3.13;;;2.00;;
40595;SDS011;26304;48.794;9.820;2022-08-21T00:41:57;2.50;;;2.30;;
40595;SDS011;26304;48.794;9.820;2022-08-21T00:47:41;2.35;;;2.13;;
40595;SDS011;26304;48.794;9.820;2022-08-21T00:53:23;2.92;;;2.15;;
40595;SDS011;26304;48.794;9.820;2022-08-21T00:59:07;2.55;;;2.33;;
40595;SDS011;26304;48.794;9.820;2022-08-21T01:04:51;3.22;;;2.10;;
40595;SDS011;26304;48.794;9.820;2022-08-21T01:10:34;2.50;;;1.95;;
40595;SDS011;26304;48.794;9.820;2022-08-21T01:16:19;2.90;;;1.80;;
40595;SDS011;26304;48.794;9.820;2022-08-21T01:22:05;2.13;;;2.03;;
40595;SDS011;26304;48.794;9.820;2022-08-21T01:27:48;2.33;;;1.90;;
40595;SDS011;26304;48.794;9.820;2022-08-21T01:33:31;1.95;;;1.80;;
40595;SDS011;26304;48.794;9.820;2022-08-21T01:39:15;2.00;;;1.90;;
40595;SDS011;26304;48.794;9.820;2022-08-21T01:44:57;2.47;;;2.35;;
40595;SDS011;26304;48.794;9.820;2022-08-21T01:50:40;1.92;;;1.83;;
40595;SDS011;26304;48.794;9.820;2022-08-21T01:56:24;2.58;;;1.92;;
40595;SDS011;26304;48.794;9.820;2022-08-21T02:02:06;2.22;;;2.10;;
40595;SDS011;26304;48.794;9.820;2022-08-21T02:07:50;2.42;;;1.92;;
40595;SDS011;26304;48.794;9.820;2022-08-21T02:13:35;2.20;;;2.00;;
40595;SDS011;26304;48.794;9.820;2022-08-21T02:19:17;2.20;;;2.00;;
40595;SDS011;26304;48.794;9.820;2022-08-21T02:25:00;2.25;;;2.05;;
40595;SDS011;26304;48.794;9.820;2022-08-21T02:30:45;4.30;;;2.28;;
40595;SDS011;26304;48.794;9.820;2022-08-21T02:36:29;2.88;;;2.30;;
40595;SDS011;26304;48.794;9.820;2022-08-21T02:42:12;2.28;;;2.15;;
40595;SDS011;26304;48.794;9.820;2022-08-21T02:47:56;2.28;;;1.80;;
40595;SDS011;26304;48.794;9.820;2022-08-21T02:53:40;2.60;;;2.30;;
40595;SDS011;26304;48.794;9.820;2022-08-21T02:59:23;2.60;;;2.28;;
40595;SDS011;26304;48.794;9.820;2022-08-21T03:05:08;2.70;;;2.20;;
40595;SDS011;26304;48.794;9.820;2022-08-21T03:10:52;3.65;;;2.42;;
40595;SDS011;26304;48.794;9.820;2022-08-21T03:16:34;3.67;;;2.60;;
40595;SDS011;26304;48.794;9.820;2022-08-21T03:22:18;2.33;;;2.13;;
40595;SDS011;26304;48.794;9.820;2022-08-21T03:28:01;4.50;;;2.40;;
40595;SDS011;26304;48.794;9.820;2022-08-21T03:33:45;2.80;;;2.35;;
40595;SDS011;26304;48.794;9.820;2022-08-21T03:39:29;2.45;;;2.13;;
40595;SDS011;26304;48.794;9.820;2022-08-21T03:45:11;3.75;;;2.63;;
40595;SDS011;26304;48.794;9.820;2022-08-21T03:50:54;3.25;;;2.72;;
40595;SDS011;26304;48.794;9.820;2022-08-21T03:56:38;2.72;;;2.25;;
40595;SDS011;26304;48.794;9.820;2022-08-21T04:02:21;4.72;;;2.90;;
40595;SDS011;26304;48.794;9.820;2022-08-21T04:08:05;2.83;;;2.63;;
40595;SDS011;26304;48.794;9.820;2022-08-21T04:13:49;3.33;;;2.85;;
40595;SDS011;26304;48.794;9.820;2022-08-21T04:19:32;2.75;;;2.55;;
40595;SDS011;26304;48.794;9.820;2022-08-21T04:25:15;3.58;;;2.78;;
40595;SDS011;26304;48.794;9.820;2022-08-21T04:30:59;3.55;;;2.88;;
40595;SDS011;26304;48.794;9.820;2022-08-21T04:36:42;4.05;;;2.80;;
40595;SDS011;26304;48.794;9.820;2022-08-21T04:42:24;2.55;;;2.35;;
40595;SDS011;26304;48.794;9.820;2022-08-21T04:48:10;3.15;;;2.92;;
40595;SDS011;26304;48.794;9.820;2022-08-21T04:53:55;3.80;;;2.90;;
40595;SDS011;26304;48.794;9.820;2022-08-21T04:59:42;3.42;;;2.70;;
40595;SDS011;26304;48.794;9.820;2022-08-21T05:05:29;3.75;;;2.85;;
40595;SDS011;26304;48.794;9.820;2022-08-21T05:11:12;2.97;;;2.78;;
40595;SDS011;26304;48.794;9.820;2022-08-21T05:16:55;3.40;;;2.85;;
40595;SDS011;26304;48.794;9.820;2022-08-21T05:22:39;3.08;;;2.85;;
40595;SDS011;26304;48.794;9.820;2022-08-21T05:28:22;3.42;;;3.13;;
40595;SDS011;26304;48.794;9.820;2022-08-21T05:34:04;4.82;;;3.00;;
40595;SDS011;26304;48.794;9.820;2022-08-21T05:39:48;3.47;;;3.03;;
40595;SDS011;26304;48.794;9.820;2022-08-21T05:45:32;3.13;;;2.92;;
40595;SDS011;26304;48.794;9.820;2022-08-21T05:51:15;3.40;;;3.03;;
40595;SDS011;26304;48.794;9.820;2022-08-21T05:56:59;3.58;;;3.13;;
40595;SDS011;26304;48.794;9.820;2022-08-21T06:02:42;4.13;;;3.15;;
40595;SDS011;26304;48.794;9.820;2022-08-21T06:08:24;3.22;;;3.03;;
40595;SDS011;26304;48.794;9.820;2022-08-21T06:14:09;2.72;;;2.53;;
40595;SDS011;26304;48.794;9.820;2022-08-21T06:19:52;3.25;;;2.45;;
40595;SDS011;26304;48.794;9.820;2022-08-21T06:25:35;3.28;;;2.50;;
40595;SDS011;26304;48.794;9.820;2022-08-21T06:31:19;4.30;;;2.75;;
40595;SDS011;26304;48.794;9.820;2022-08-21T06:37:04;3.15;;;2.83;;
40595;SDS011;26304;48.794;9.820;2022-08-21T06:42:47;4.25;;;2.67;;
40595;SDS011;26304;48.794;9.820;2022-08-21T06:48:31;4.75;;;3.28;;
40595;SDS011;26304;48.794;9.820;2022-08-21T06:54:14;3.65;;;3.00;;
40595;SDS011;26304;48.794;9.820;2022-08-21T06:59:57;3.03;;;2.75;;
40595;SDS011;26304;48.794;9.820;2022-08-21T07:05:41;3.53;;;3.03;;
40595;SDS011;26304;48.794;9.820;2022-08-21T07:11:23;9.93;;;3.50;;
40595;SDS011;26304;48.794;9.820;2022-08-21T07:17:06;4.95;;;2.60;;
40595;SDS011;26304;48.794;9.820;2022-08-21T07:22:50;2.50;;;2.30;;
40595;SDS011;26304;48.794;9.820;2022-08-21T07:28:33;4.82;;;2.58;;
40595;SDS011;26304;48.794;9.820;2022-08-21T07:34:16;3.65;;;2.40;;
40595;SDS011;26304;48.794;9.820;2022-08-21T07:39:59;3.88;;;2.47;;
40595;SDS011;26304;48.794;9.820;2022-08-21T07:45:42;3.38;;;2.85;;
40595;SDS011;26304;48.794;9.820;2022-08-21T07:51:25;3.83;;;3.05;;
40595;SDS011;26304;48.794;9.820;2022-08-21T07:57:11;3.20;;;2.90;;
40595;SDS011;26304;48.794;9.820;2022-08-21T08:02:54;3.22;;;2.85;;
40595;SDS011;26304;48.794;9.820;2022-08-21T08:08:37;4.97;;;2.85;;
40595;SDS011;26304;48.794;9.820;2022-08-21T08:14:22;3.10;;;2.80;;
40595;SDS011;26304;48.794;9.820;2022-08-21T08:20:05;4.43;;;3.17;;
40595;SDS011;26304;48.794;9.820;2022-08-21T08:25:48;5.65;;;3.75;;
40595;SDS011;26304;48.794;9.820;2022-08-21T08:31:32;3.47;;;3.17;;
40595;SDS011;26304;48.794;9.820;2022-08-21T08:37:15;4.78;;;3.70;;
40595;SDS011;26304;48.794;9.820;2022-08-21T08:42:57;3.75;;;3.45;;
40595;SDS011;26304;48.794;9.820;2022-08-21T08:48:43;4.13;;;3.72;;
40595;SDS011;26304;48.794;9.820;2022-08-21T08:54:31;4.25;;;3.63;;
40595;SDS011;26304;48.794;9.820;2022-08-21T09:00:18;5.80;;;3.90;;
40595;SDS011;26304;48.794;9.820;2022-08-21T09:06:06;6.65;;;3.92;;
40595;SDS011;26304;48.794;9.820;2022-08-21T09:11:54;6.70;;;4.20;;
40595;SDS011;26304;48.794;9.820;2022-08-21T09:17:46;5.15;;;3.95;;
40595;SDS011;26304;48.794;9.820;2022-08-21T09:23:46;5.40;;;4.07;;
40595;SDS011;26304;48.794;9.820;2022-08-21T09:29:36;5.15;;;4.10;;
40595;SDS011;26304;48.794;9.820;2022-08-21T09:35:20;4.82;;;4.18;;
40595;SDS011;26304;48.794;9.820;2022-08-21T09:41:06;3.85;;;3.45;;
40595;SDS011;26304;48.794;9.820;2022-08-21T09:46:51;4.82;;;4.18;;
40595;SDS011;26304;48.794;9.820;2022-08-21T09:52:33;4.45;;;4.05;;
40595;SDS011;26304;48.794;9.820;2022-08-21T09:58:18;4.43;;;4.03;;
40595;SDS011;26304;48.794;9.820;2022-08-21T10:04:02;4.55;;;3.70;;
40595;SDS011;26304;48.794;9.820;2022-08-21T10:09:45;6.95;;;4.18;;
40595;SDS011;26304;48.794;9.820;2022-08-21T10:15:33;4.40;;;4.00;;
40595;SDS011;26304;48.794;9.820;2022-08-21T10:21:30;4.63;;;4.13;;
40595;SDS011;26304;48.794;9.820;2022-08-21T10:27:20;6.22;;;4.28;;
40595;SDS011;26304;48.794;9.820;2022-08-21T10:33:24;4.45;;;4.03;;
40595;SDS011;26304;48.794;9.820;2022-08-21T10:39:16;4.25;;;3.85;;
40595;SDS011;26304;48.794;9.820;2022-08-21T10:45:07;6.28;;;4.47;;
40595;SDS011;26304;48.794;9.820;2022-08-21T10:50:58;5.18;;;3.85;;
40595;SDS011;26304;48.794;9.820;2022-08-21T10:56:46;5.25;;;4.22;;
40595;SDS011;26304;48.794;9.820;2022-08-21T11:02:32;6.85;;;4.22;;
40595;SDS011;26304;48.794;9.820;2022-08-21T11:08:23;5.32;;;4.10;;
40595;SDS011;26304;48.794;9.820;2022-08-21T11:14:13;4.30;;;3.83;;
40595;SDS011;26304;48.794;9.820;2022-08-21T11:20:12;5.15;;;4.03;;
40595;SDS011;26304;48.794;9.820;2022-08-21T11:26:04;4.10;;;3.65;;
40595;SDS011;26304;48.794;9.820;2022-08-21T11:32:00;6.47;;;3.88;;
40595;SDS011;26304;48.794;9.820;2022-08-21T11:38:15;4.85;;;3.78;;
40595;SDS011;26304;48.794;9.820;2022-08-21T11:44:12;4.32;;;3.75;;
40595;SDS011;26304;48.794;9.820;2022-08-21T11:50:07;4.07;;;3.42;;
40595;SDS011;26304;48.794;9.820;2022-08-21T11:55:56;5.00;;;4.50;;
40595;SDS011;26304;48.794;9.820;2022-08-21T12:01:45;3.97;;;3.67;;
40595;SDS011;26304;48.794;9.820;2022-08-21T12:07:31;4.82;;;3.63;;
40595;SDS011;26304;48.794;9.820;2022-08-21T12:13:24;3.67;;;3.38;;
40595;SDS011;26304;48.794;9.820;2022-08-21T12:19:10;5.65;;;3.45;;
40595;SDS011;26304;48.794;9.820;2022-08-21T12:25:02;3.72;;;3.30;;
40595;SDS011;26304;48.794;9.820;2022-08-21T12:30:47;3.72;;;3.40;;
40595;SDS011;26304;48.794;9.820;2022-08-21T12:36:38;4.57;;;3.60;;
40595;SDS011;26304;48.794;9.820;2022-08-21T12:42:28;4.18;;;3.55;;
40595;SDS011;26304;48.794;9.820;2022-08-21T12:48:18;3.42;;;3.15;;
40595;SDS011;26304;48.794;9.820;2022-08-21T12:54:05;4.40;;;4.00;;
40595;SDS011;26304;48.794;9.820;2022-08-21T12:59:52;4.35;;;3.47;;
40595;SDS011;26304;48.794;9.820;2022-08-21T13:05:35;5.20;;;3.85;;
40595;SDS011;26304;48.794;9.820;2022-08-21T13:11:20;4.47;;;3.80;;
40595;SDS011;26304;48.794;9.820;2022-08-21T13:17:05;4.38;;;3.80;;
40595;SDS011;26304;48.794;9.820;2022-08-21T13:22:49;5.60;;;3.70;;
40595;SDS011;26304;48.794;9.820;2022-08-21T13:28:34;4.75;;;3.97;;
40595;SDS011;26304;48.794;9.820;2022-08-21T13:34:18;4.28;;;3.88;;
40595;SDS011;26304;48.794;9.820;2022-08-21T13:40:06;5.18;;;4.25;;
40595;SDS011;26304;48.794;9.820;2022-08-21T13:45:53;4.60;;;3.80;;
40595;SDS011;26304;48.794;9.820;2022-08-21T13:51:36;4.28;;;3.80;;
40595;SDS011;26304;48.794;9.820;2022-08-21T13:57:25;4.65;;;4.20;;
40595;SDS011;26304;48.794;9.820;2022-08-21T14:03:11;4.43;;;3.40;;
40595;SDS011;26304;48.794;9.820;2022-08-21T14:09:07;6.20;;;4.68;;
40595;SDS011;26304;48.794;9.820;2022-08-21T14:14:52;4.85;;;3.80;;
40595;SDS011;26304;48.794;9.820;2022-08-21T14:20:38;5.07;;;4.55;;
40595;SDS011;26304;48.794;9.820;2022-08-21T14:26:20;6.28;;;5.68;;
40595;SDS011;26304;48.794;9.820;2022-08-21T14:32:08;5.15;;;4.65;;
40595;SDS011;26304;48.794;9.820;2022-08-21T14:37:55;4.90;;;4.40;;
40595;SDS011;26304;48.794;9.820;2022-08-21T14:43:38;4.15;;;3.65;;
40595;SDS011;26304;48.794;9.820;2022-08-21T14:49:21;4.30;;;3.60;;
40595;SDS011;26304;48.794;9.820;2022-08-21T14:55:05;4.43;;;3.60;;
40595;SDS011;26304;48.794;9.820;2022-08-21T15:00:51;4.32;;;3.88;;
40595;SDS011;26304;48.794;9.820;2022-08-21T15:06:35;4.20;;;3.63;;
40595;SDS011;26304;48.794;9.820;2022-08-21T15:12:19;5.03;;;3.50;;
40595;SDS011;26304;48.794;9.820;2022-08-21T15:18:02;4.97;;;3.53;;
40595;SDS011;26304;48.794;9.820;2022-08-21T15:23:45;3.58;;;3.28;;
40595;SDS011;26304;48.794;9.820;2022-08-21T15:29:29;4.43;;;4.03;;
40595;SDS011;26304;48.794;9.820;2022-08-21T15:35:13;5.55;;;4.57;;
40595;SDS011;26304;48.794;9.820;2022-08-21T15:40:55;6.07;;;5.28;;
40595;SDS011;26304;48.794;9.820;2022-08-21T15:46:39;6.00;;;5.05;;
40595;SDS011;26304;48.794;9.820;2022-08-21T15:52:23;4.93;;;4.53;;
40595;SDS011;26304;48.794;9.820;2022-08-21T15:58:05;5.03;;;4.32;;
40595;SDS011;26304;48.794;9.820;2022-08-21T16:03:50;5.60;;;3.80;;
40595;SDS011;26304;48.794;9.820;2022-08-21T16:09:35;4.15;;;3.60;;
40595;SDS011;26304;48.794;9.820;2022-08-21T16:15:18;4.13;;;3.72;;
40595;SDS011;26304;48.794;9.820;2022-08-21T16:21:02;4.13;;;3.63;;
40595;SDS011;26304;48.794;9.820;2022-08-21T16:26:45;5.28;;;3.80;;
40595;SDS011;26304;48.794;9.820;2022-08-21T16:32:29;5.45;;;3.50;;
40595;SDS011;26304;48.794;9.820;2022-08-21T16:38:13;3.60;;;3.30;;
40595;SDS011;26304;48.794;9.820;2022-08-21T16:43:56;5.32;;;3.90;;
40595;SDS011;26304;48.794;9.820;2022-08-21T16:49:38;7.80;;;3.33;;
40595;SDS011;26304;48.794;9.820;2022-08-21T16:55:22;3.50;;;3.20;;
40595;SDS011;26304;48.794;9.820;2022-08-21T17:01:06;3.65;;;3.35;;
40595;SDS011;26304;48.794;9.820;2022-08-21T17:06:51;4.35;;;3.72;;
40595;SDS011;26304;48.794;9.820;2022-08-21T17:12:35;3.90;;;3.33;;
40595;SDS011;26304;48.794;9.820;2022-08-21T17:18:18;4.65;;;3.65;;
40595;SDS011;26304;48.794;9.820;2022-08-21T17:24:03;4.50;;;3.92;;
40595;SDS011;26304;48.794;9.820;2022-08-21T17:29:47;5.25;;;4.75;;
40595;SDS011;26304;48.794;9.820;2022-08-21T17:35:30;4.65;;;4.25;;
40595;SDS011;26304;48.794;9.820;2022-08-21T17:41:13;4.93;;;4.35;;
40595;SDS011;26304;48.794;9.820;2022-08-21T17:46:58;5.03;;;4.38;;
40595;SDS011;26304;48.794;9.820;2022-08-21T17:52:41;5.25;;;4.13;;
40595;SDS011;26304;48.794;9.820;2022-08-21T17:58:24;3.92;;;3.63;;
40595;SDS011;26304;48.794;9.820;2022-08-21T18:04:08;5.85;;;4.07;;
40595;SDS011;26304;48.794;9.820;2022-08-21T18:09:50;4.88;;;3.75;;
40595;SDS011;26304;48.794;9.820;2022-08-21T18:15:33;3.97;;;3.67;;
40595;SDS011;26304;48.794;9.820;2022-08-21T18:21:17;3.95;;;3.13;;
40595;SDS011;26304;48.794;9.820;2022-08-21T18:27:00;4.47;;;3.38;;
40595;SDS011;26304;48.794;9.820;2022-08-21T18:32:44;4.88;;;3.50;;
40595;SDS011;26304;48.794;9.820;2022-08-21T18:38:29;4.38;;;3.35;;
40595;SDS011;26304;48.794;9.820;2022-08-21T18:44:11;3.55;;;3.25;;
40595;SDS011;26304;48.794;9.820;2022-08-21T18:49:55;4.43;;;3.70;;
40595;SDS011;26304;48.794;9.820;2022-08-21T18:55:40;3.60;;;3.30;;
40595;SDS011;26304;48.794;9.820;2022-08-21T19:01:25;4.00;;;3.63;;
40595;SDS011;26304;48.794;9.820;2022-08-21T19:07:07;3.58;;;2.95;;
40595;SDS011;26304;48.794;9.820;2022-08-21T19:12:52;5.20;;;4.20;;
40595;SDS011;26304;48.794;9.820;2022-08-21T19:18:36;4.07;;;3.58;;
40595;SDS011;26304;48.794;9.820;2022-08-21T19:24:21;3.55;;;3.13;;
40595;SDS011;26304;48.794;9.820;2022-08-21T19:30:06;3.78;;;3.45;;
40595;SDS011;26304;48.794;9.820;2022-08-21T19:35:49;5.93;;;5.32;;
40595;SDS011;26304;48.794;9.820;2022-08-21T19:41:32;7.10;;;6.40;;
40595;SDS011;26304;48.794;9.820;2022-08-21T19:47:19;5.78;;;5.28;;
40595;SDS011;26304;48.794;9.820;2022-08-21T19:53:03;5.10;;;4.70;;
40595;SDS011;26304;48.794;9.820;2022-08-21T19:58:46;11.75;;;7.97;;
40595;SDS011;26304;48.794;9.820;2022-08-21T20:04:31;6.65;;;6.05;;
40595;SDS011;26304;48.794;9.820;2022-08-21T20:10:14;5.00;;;4.50;;
40595;SDS011;26304;48.794;9.820;2022-08-21T20:15:56;4.70;;;4.30;;
40595;SDS011;26304;48.794;9.820;2022-08-21T20:21:40;4.45;;;4.03;;
40595;SDS011;26304;48.794;9.820;2022-08-21T20:27:24;4.88;;;4.38;;
40595;SDS011;26304;48.794;9.820;2022-08-21T20:33:07;5.85;;;4.22;;
40595;SDS011;26304;48.794;9.820;2022-08-21T20:38:51;4.97;;;4.45;;
40595;SDS011;26304;48.794;9.820;2022-08-21T20:44:34;5.28;;;4.78;;
40595;SDS011;26304;48.794;9.820;2022-08-21T20:50:18;4.55;;;4.00;;
40595;SDS011;26304;48.794;9.820;2022-08-21T20:56:07;5.45;;;4.88;;
40595;SDS011;26304;48.794;9.820;2022-08-21T21:01:55;5.65;;;5.15;;
40595;SDS011;26304;48.794;9.820;2022-08-21T21:07:50;6.00;;;5.50;;
40595;SDS011;26304;48.794;9.820;2022-08-21T21:13:39;6.43;;;5.47;;
40595;SDS011;26304;48.794;9.820;2022-08-21T21:19:27;5.45;;;4.95;;
40595;SDS011;26304;48.794;9.820;2022-08-21T21:25:16;5.70;;;4.40;;
40595;SDS011;26304;48.794;9.820;2022-08-21T21:31:14;5.05;;;4.55;;
40595;SDS011;26304;48.794;9.820;2022-08-21T21:36:59;4.22;;;3.92;;
40595;SDS011;26304;48.794;9.820;2022-08-21T21:42:47;5.28;;;4.82;;
40595;SDS011;26304;48.794;9.820;2022-08-21T21:48:46;5.45;;;4.95;;
40595;SDS011;26304;48.794;9.820;2022-08-21T21:54:48;4.70;;;4.25;;
40595;SDS011;26304;48.794;9.820;2022-08-21T22:00:50;4.75;;;4.35;;
40595;SDS011;26304;48.794;9.820;2022-08-21T22:06:43;4.18;;;3.63;;
40595;SDS011;26304;48.794;9.820;2022-08-21T22:12:36;5.10;;;3.88;;
40595;SDS011;26304;48.794;9.820;2022-08-21T22:18:25;5.00;;;4.47;;
40595;SDS011;26304;48.794;9.820;2022-08-21T22:24:14;5.47;;;4.97;;
40595;SDS011;26304;48.794;9.820;2022-08-21T22:30:00;4.95;;;4.55;;
40595;SDS011;26304;48.794;9.820;2022-08-21T22:35:47;4.43;;;4.13;;
40595;SDS011;26304;48.794;9.820;2022-08-21T22:41:37;5.32;;;4.38;;
40595;SDS011;26304;48.794;9.820;2022-08-21T22:47:22;5.72;;;4.45;;
40595;SDS011;26304;48.794;9.820;2022-08-21T22:53:07;6.55;;;4.57;;
40595;SDS011;26304;48.794;9.820;2022-08-21T22:58:53;5.07;;;4.53;;
40595;SDS011;26304;48.794;9.820;2022-08-21T23:04:43;4.57;;;4.18;;
40595;SDS011;26304;48.794;9.820;2022-08-21T23:10:29;4.85;;;4.45;;
40595;SDS011;26304;48.794;9.820;2022-08-21T23:16:22;4.57;;;4.22;;
40595;SDS011;26304;48.794;9.820;2022-08-21T23:28:22;5.07;;;4.55;;
40595;SDS011;26304;48.794;9.820;2022-08-21T23:34:21;5.20;;;4.70;;
40595;SDS011;26304;48.794;9.820;2022-08-21T23:40:11;5.50;;;4.80;;
40595;SDS011;26304;48.794;9.820;2022-08-21T23:46:10;4.55;;;4.15;;
40595;SDS011;26304;48.794;9.820;2022-08-21T23:52:06;5.18;;;4.78;;
40595;SDS011;26304;48.794;9.820;2022-08-21T23:57:59;5.75;;;4.47;;
